createdAt,value
2023-03-16T00:03:31.883Z,8.61
2023-03-16T00:07:36.591Z,8.43
2023-03-16T00:11:41.076Z,8.41
2023-03-16T00:15:47.293Z,8.26
2023-03-16T00:19:48.582Z,8.30
2023-03-16T00:23:47.908Z,8.32
2023-03-16T00:27:47.291Z,8.29
2023-03-16T00:31:48.323Z,8.27
2023-03-16T00:35:50.024Z,8.19
2023-03-16T00:39:49.514Z,8.12
2023-03-16T00:43:49.119Z,8.08
2023-03-16T00:47:53.807Z,8.12
2023-03-16T00:51:53.114Z,8.10
2023-03-16T00:55:53.233Z,8.20
2023-03-16T00:59:52.959Z,8.17
2023-03-16T01:03:56.249Z,8.19
2023-03-16T01:07:55.681Z,8.25
2023-03-16T01:11:55.360Z,8.30
2023-03-16T01:15:54.703Z,8.64
2023-03-16T01:19:56.216Z,9.05
2023-03-16T01:23:55.779Z,9.22
2023-03-16T01:27:55.340Z,8.91
2023-03-16T01:31:55.590Z,8.77
2023-03-16T01:35:57.670Z,8.79
2023-03-16T01:39:57.985Z,8.73
2023-03-16T01:43:59.338Z,8.66
2023-03-16T01:47:59.220Z,8.75
2023-03-16T01:52:01.972Z,8.91
2023-03-16T01:56:02.905Z,8.87
2023-03-16T02:00:10.306Z,8.90
2023-03-16T02:04:19.033Z,8.75
2023-03-16T02:08:22.621Z,8.55
2023-03-16T02:12:22.433Z,8.45
2023-03-16T02:16:22.543Z,8.30
2023-03-16T02:20:26.576Z,8.18
2023-03-16T02:24:28.382Z,8.06
2023-03-16T02:28:30.522Z,7.93
2023-03-16T02:32:33.651Z,8.05
2023-03-16T02:36:35.097Z,8.08
2023-03-16T02:40:35.171Z,8.34
2023-03-16T02:44:37.183Z,8.50
2023-03-16T02:48:45.119Z,8.53
2023-03-16T02:52:44.566Z,8.36
2023-03-16T02:56:43.935Z,8.31
2023-03-16T03:00:45.045Z,8.15
2023-03-16T03:04:48.033Z,8.12
2023-03-16T03:08:47.505Z,8.11
2023-03-16T03:12:49.178Z,8.18
2023-03-16T03:16:48.774Z,8.27
2023-03-16T03:20:50.399Z,8.27
2023-03-16T03:24:49.857Z,8.34
2023-03-16T03:28:49.312Z,8.43
2023-03-16T03:32:48.313Z,8.35
2023-03-16T03:36:53.293Z,8.52
2023-03-16T03:40:52.495Z,8.43
2023-03-16T03:44:52.467Z,8.29
2023-03-16T03:48:51.690Z,8.17
2023-03-16T03:52:53.363Z,8.17
2023-03-16T03:56:53.260Z,7.93
2023-03-16T04:00:53.794Z,7.77
2023-03-16T04:04:53.506Z,7.74
2023-03-16T04:08:55.666Z,7.62
2023-03-16T04:12:58.129Z,7.56
2023-03-16T04:16:57.716Z,7.56
2023-03-16T04:21:07.039Z,7.56
2023-03-16T04:25:10.355Z,7.52
2023-03-16T04:29:11.000Z,7.59
2023-03-16T04:33:10.362Z,7.41
2023-03-16T04:37:10.030Z,7.29
2023-03-16T04:41:13.218Z,7.13
2023-03-16T04:45:14.689Z,6.91
2023-03-16T04:49:14.933Z,6.76
2023-03-16T04:53:16.373Z,6.67
2023-03-16T04:57:18.990Z,6.53
2023-03-16T05:01:22.192Z,6.61
2023-03-16T05:05:26.369Z,6.60
2023-03-16T05:09:25.912Z,6.38
2023-03-16T05:13:27.207Z,6.30
2023-03-16T05:17:29.443Z,6.33
2023-03-16T05:21:31.632Z,6.33
2023-03-16T05:25:31.560Z,6.18
2023-03-16T05:29:34.872Z,6.08
2023-03-16T05:33:33.856Z,6.18
2023-03-16T05:37:37.842Z,6.12
2023-03-16T05:41:38.417Z,6.21
2023-03-16T05:45:42.081Z,6.23
2023-03-16T05:49:41.511Z,6.12
2023-03-16T05:53:41.910Z,6.11
2023-03-16T05:57:41.815Z,6.07
2023-03-16T06:01:43.780Z,5.97
2023-03-16T06:05:43.677Z,6.01
2023-03-16T06:09:43.449Z,5.78
2023-03-16T06:13:43.765Z,5.76
2023-03-16T06:17:45.335Z,5.67
2023-03-16T06:21:47.034Z,5.57
2023-03-16T06:25:46.032Z,5.56
2023-03-16T06:29:45.843Z,5.61
2023-03-16T06:33:47.309Z,5.61
2023-03-16T06:37:47.008Z,5.55
2023-03-16T06:41:48.886Z,5.62
2023-03-16T06:45:49.257Z,5.67
2023-03-16T06:49:51.503Z,5.77
2023-03-16T06:53:52.478Z,5.64
2023-03-16T06:57:53.061Z,5.81
2023-03-16T07:01:52.180Z,5.65
2023-03-16T07:05:54.222Z,5.64
2023-03-16T07:09:53.248Z,5.75
2023-03-16T07:13:52.936Z,5.61
2023-03-16T07:17:56.735Z,5.57
2023-03-16T07:21:59.370Z,5.57
2023-03-16T07:26:00.447Z,5.67
2023-03-16T07:30:15.125Z,5.69
2023-03-16T07:34:15.939Z,5.73
2023-03-16T07:38:17.909Z,5.62
2023-03-16T07:42:25.381Z,5.53
2023-03-16T07:47:08.509Z,5.69
2023-03-16T07:51:08.632Z,5.69
2023-03-16T07:55:11.563Z,5.57
2023-03-16T07:59:11.795Z,5.42
2023-03-16T08:03:15.319Z,5.51
2023-03-16T08:07:17.484Z,5.54
2023-03-16T08:11:23.426Z,5.51
2023-03-16T08:15:24.159Z,5.40
2023-03-16T08:19:24.829Z,5.58
2023-03-16T08:23:26.090Z,5.43
2023-03-16T08:27:29.567Z,5.39
2023-03-16T08:31:34.667Z,5.35
2023-03-16T08:35:33.943Z,5.39
2023-03-16T08:39:37.088Z,5.42
2023-03-16T08:43:42.274Z,5.52
2023-03-16T08:47:44.787Z,5.54
2023-03-16T08:51:46.215Z,5.64
2023-03-16T08:55:47.969Z,5.57
2023-03-16T08:59:53.946Z,5.60
2023-03-16T09:04:01.129Z,5.46
2023-03-16T09:08:01.579Z,5.46
2023-03-16T09:12:02.033Z,5.36
2023-03-16T09:16:19.431Z,5.45
2023-03-16T09:20:26.488Z,5.34
2023-03-16T09:24:34.568Z,5.36
2023-03-16T09:28:34.822Z,5.51
2023-03-16T09:32:39.605Z,5.67
2023-03-16T09:36:41.905Z,5.78
2023-03-16T09:40:44.568Z,5.78
2023-03-16T09:44:52.964Z,5.72
2023-03-16T09:49:02.081Z,5.78
2023-03-16T09:53:11.128Z,5.81
2023-03-16T09:57:19.962Z,5.95
2023-03-16T10:01:50.205Z,5.87
2023-03-16T10:06:01.775Z,5.86
2023-03-16T10:10:36.892Z,5.70
2023-03-16T10:14:47.150Z,5.96
2023-03-16T10:18:57.006Z,5.93
2023-03-16T10:23:03.700Z,6.04
2023-03-16T10:27:20.723Z,6.05
2023-03-16T10:31:30.312Z,6.07
2023-03-16T10:35:36.407Z,6.00
2023-03-16T10:39:43.151Z,5.96
2023-03-16T10:43:43.009Z,5.86
2023-03-16T10:47:45.415Z,5.99
2023-03-16T10:51:45.549Z,5.85
2023-03-16T10:55:50.180Z,5.79
2023-03-16T10:59:50.863Z,5.89
2023-03-16T11:03:57.196Z,5.85
2023-03-16T11:08:00.489Z,5.91
2023-03-16T11:12:16.906Z,5.91
2023-03-16T11:16:34.198Z,6.02
2023-03-16T11:20:36.983Z,5.97
2023-03-16T11:24:46.998Z,5.98
2023-03-16T11:29:11.821Z,5.95
2023-03-16T11:33:12.331Z,6.00
2023-03-16T11:37:40.286Z,5.98
2023-03-16T11:41:52.030Z,5.94
2023-03-16T11:46:12.217Z,6.01
2023-03-16T11:50:31.107Z,6.02
2023-03-16T11:54:40.899Z,6.10
2023-03-16T11:58:48.370Z,6.26
2023-03-16T12:02:57.857Z,6.19
2023-03-16T12:07:15.005Z,6.11
2023-03-16T12:11:31.334Z,6.10
2023-03-16T12:15:44.511Z,6.07
2023-03-16T12:19:48.717Z,6.29
2023-03-16T12:23:52.925Z,6.31
2023-03-16T12:27:54.671Z,6.27
2023-03-16T12:31:56.272Z,6.30
2023-03-16T12:36:03.485Z,6.22
2023-03-16T12:40:20.660Z,6.23
2023-03-16T12:44:21.919Z,6.37
2023-03-16T12:48:27.012Z,6.49
2023-03-16T12:52:27.975Z,6.34
2023-03-16T12:56:29.846Z,6.41
2023-03-16T13:00:37.034Z,6.39
2023-03-16T13:04:41.941Z,6.42
2023-03-16T13:08:49.416Z,6.32
2023-03-16T13:12:51.222Z,6.23
2023-03-16T13:16:52.471Z,6.17
2023-03-16T13:20:54.482Z,6.11
2023-03-16T13:24:57.304Z,6.17
2023-03-16T13:28:59.137Z,6.06
2023-03-16T13:33:03.850Z,6.00
2023-03-16T13:37:15.018Z,6.19
2023-03-16T13:41:16.817Z,6.23
2023-03-16T13:45:18.620Z,6.24
2023-03-16T13:49:18.212Z,6.01
2023-03-16T13:53:18.723Z,5.84
2023-03-16T13:57:25.079Z,6.00
2023-03-16T14:01:27.754Z,5.99
2023-03-16T14:05:29.063Z,5.98
2023-03-16T14:09:30.464Z,6.04
2023-03-16T14:13:37.955Z,6.04
2023-03-16T14:17:37.356Z,5.92
2023-03-16T14:21:46.609Z,5.99
2023-03-16T14:25:47.672Z,5.93
2023-03-16T14:29:53.106Z,5.79
2023-03-16T14:34:01.562Z,5.85
2023-03-16T14:38:31.801Z,5.83
2023-03-16T14:42:38.981Z,5.75
2023-03-16T14:46:42.873Z,5.76
2023-03-16T14:50:44.669Z,5.81
2023-03-16T14:54:48.901Z,5.75
2023-03-16T14:58:52.622Z,5.65
2023-03-16T15:03:11.375Z,5.71
2023-03-16T15:07:21.563Z,5.68
2023-03-16T15:11:24.866Z,5.76
2023-03-16T15:15:28.798Z,5.60
2023-03-16T15:19:39.749Z,5.62
2023-03-16T15:23:51.996Z,5.52
2023-03-16T15:28:02.267Z,5.58
2023-03-16T15:32:08.408Z,5.67
2023-03-16T15:36:15.278Z,5.81
2023-03-16T15:40:19.555Z,5.59
2023-03-16T15:44:18.837Z,5.71
2023-03-16T15:48:19.635Z,5.76
2023-03-16T15:52:25.608Z,5.51
2023-03-16T15:56:51.039Z,5.82
2023-03-16T16:06:01.762Z,5.66
2023-03-16T16:15:39.076Z,5.57
2023-03-16T16:19:50.952Z,5.60
2023-03-16T16:30:06.273Z,5.62
2023-03-16T16:34:44.712Z,5.41
2023-03-16T16:44:02.243Z,5.28
2023-03-16T16:48:35.885Z,5.33
2023-03-16T16:52:55.983Z,5.49
2023-03-16T16:57:43.061Z,5.35
2023-03-16T17:01:47.002Z,5.46
2023-03-16T17:05:48.006Z,5.42
2023-03-16T17:09:49.081Z,5.40
2023-03-16T17:13:48.995Z,5.32
2023-03-16T17:17:48.651Z,5.60
2023-03-16T17:21:51.099Z,5.63
2023-03-16T17:25:59.738Z,5.58
2023-03-16T17:30:32.286Z,5.47
2023-03-16T17:34:32.740Z,5.50
2023-03-16T17:38:45.284Z,5.49
2023-03-16T17:42:53.029Z,5.57
2023-03-16T17:46:57.643Z,5.59
2023-03-16T17:50:57.180Z,5.66
2023-03-16T17:54:56.958Z,5.89
2023-03-16T17:58:59.306Z,5.88
2023-03-16T18:03:00.919Z,6.15
2023-03-16T18:07:16.421Z,6.31
2023-03-16T18:11:41.722Z,5.96
2023-03-16T18:15:44.883Z,6.02
2023-03-16T18:19:45.094Z,5.95
2023-03-16T18:23:51.592Z,6.06
2023-03-16T18:28:17.798Z,6.11
2023-03-16T18:32:29.551Z,6.06
2023-03-16T18:36:38.714Z,6.31
2023-03-16T18:40:50.329Z,6.35
2023-03-16T18:44:52.098Z,6.11
2023-03-16T18:48:54.231Z,5.92
2023-03-16T18:52:54.118Z,5.84
2023-03-16T18:56:58.388Z,5.85
2023-03-16T19:00:58.612Z,5.70
2023-03-16T19:05:01.359Z,5.60
2023-03-16T19:09:03.430Z,5.42
2023-03-16T19:13:02.993Z,5.45
2023-03-16T19:17:02.294Z,5.38
2023-03-16T19:21:03.720Z,5.21
2023-03-16T19:25:03.042Z,5.12
2023-03-16T19:29:02.883Z,5.22
2023-03-16T19:33:02.224Z,5.15
2023-03-16T19:37:03.742Z,5.16
2023-03-16T19:41:03.048Z,5.19
2023-03-16T19:45:02.906Z,5.15
2023-03-16T19:49:02.192Z,5.10
2023-03-16T19:53:03.759Z,5.06
2023-03-16T19:57:05.030Z,5.09
2023-03-16T20:01:04.437Z,5.11
2023-03-16T20:05:04.009Z,5.12
2023-03-16T20:09:08.364Z,5.14
2023-03-16T20:13:08.422Z,5.20
2023-03-16T20:17:11.473Z,5.17
2023-03-16T20:21:11.519Z,5.27
2023-03-16T20:25:13.239Z,5.19
2023-03-16T20:29:16.652Z,5.29
2023-03-16T20:33:24.252Z,5.27
2023-03-16T20:37:25.644Z,5.30
2023-03-16T20:41:28.100Z,5.35
2023-03-16T20:45:28.653Z,5.29
2023-03-16T20:49:31.948Z,5.19
2023-03-16T20:53:31.435Z,5.29
2023-03-16T20:57:33.761Z,5.23
2023-03-16T21:01:33.162Z,5.22
2023-03-16T21:05:33.501Z,5.28
2023-03-16T21:09:33.221Z,5.20
2023-03-16T21:13:36.115Z,5.40
2023-03-16T21:17:36.515Z,5.23
2023-03-16T21:21:36.120Z,5.17
2023-03-16T21:25:38.773Z,5.23
2023-03-16T21:29:39.723Z,5.32
2023-03-16T21:33:41.290Z,5.34
2023-03-16T21:37:40.721Z,5.38
2023-03-16T21:41:39.993Z,5.39
2023-03-16T21:45:41.666Z,5.37
2023-03-16T21:49:42.280Z,5.35
2023-03-16T21:53:41.559Z,5.41
2023-03-16T21:57:41.285Z,5.36
2023-03-16T22:01:58.711Z,5.41
2023-03-16T22:06:01.146Z,5.41
2023-03-16T22:10:00.596Z,5.49
2023-03-16T22:14:01.071Z,5.43
2023-03-16T22:18:05.232Z,5.45
2023-03-16T22:22:04.481Z,5.29
2023-03-16T22:26:03.885Z,5.24
2023-03-16T22:30:03.085Z,5.18
2023-03-16T22:34:04.527Z,5.23
2023-03-16T22:38:06.070Z,5.15
2023-03-16T22:42:04.964Z,5.18
2023-03-16T22:46:04.241Z,5.17
2023-03-16T22:50:06.974Z,5.18
2023-03-16T22:54:08.703Z,5.10
2023-03-16T22:58:11.905Z,5.06
2023-03-16T23:02:14.958Z,5.03
2023-03-16T23:06:20.051Z,5.01
2023-03-16T23:10:20.844Z,5.06
2023-03-16T23:14:20.832Z,5.03
2023-03-16T23:18:20.892Z,5.01
2023-03-16T23:22:21.698Z,5.11
2023-03-16T23:26:22.578Z,5.05
2023-03-16T23:30:23.805Z,5.00
2023-03-16T23:34:24.493Z,5.04
2023-03-16T23:38:25.895Z,5.01
2023-03-16T23:42:25.211Z,5.01
2023-03-16T23:46:24.934Z,4.98
2023-03-16T23:50:26.585Z,4.86
2023-03-16T23:54:29.188Z,4.86
2023-03-16T23:58:28.559Z,4.85
